createdAt,value
2018-04-14T00:04:20.686Z,0
2018-04-14T00:14:36.335Z,0
2018-04-14T00:24:51.686Z,0
2018-04-14T00:35:05.994Z,0
2018-04-14T00:45:19.739Z,0
2018-04-14T00:55:34.853Z,0
2018-04-14T01:05:49.273Z,0
2018-04-14T01:16:04.622Z,0
2018-04-14T01:26:18.900Z,0
2018-04-14T01:36:34.634Z,0
2018-04-14T01:46:49.847Z,0
2018-04-14T01:57:05.475Z,0
2018-04-14T02:07:19.800Z,0
2018-04-14T02:17:35.272Z,0
2018-04-14T02:27:49.290Z,0
2018-04-14T02:38:04.150Z,0
2018-04-14T02:48:18.146Z,0
2018-04-14T02:58:32.319Z,0
2018-04-14T03:08:47.725Z,0
2018-04-14T03:19:02.392Z,0
2018-04-14T03:29:17.850Z,0
2018-04-14T03:39:31.928Z,0
2018-04-14T03:49:46.156Z,0
2018-04-14T04:00:02.212Z,0
2018-04-14T04:10:15.993Z,0
2018-04-14T04:20:30.836Z,0
2018-04-14T04:30:45.368Z,0
2018-04-14T04:41:00.277Z,5
2018-04-14T04:51:15.023Z,5
2018-04-14T05:01:29.108Z,30
2018-04-14T05:11:44.719Z,25
2018-04-14T05:21:59.017Z,35
2018-04-14T05:32:14.493Z,35
2018-04-14T05:42:29.202Z,85
2018-04-14T05:52:44.272Z,95
2018-04-14T06:02:59.599Z,80
2018-04-14T06:13:13.470Z,115
2018-04-14T06:23:28.387Z,125
2018-04-14T06:33:43.093Z,320
2018-04-14T06:43:57.341Z,455
2018-04-14T06:54:11.571Z,505
2018-04-14T07:04:25.853Z,410
2018-04-14T07:14:39.755Z,500
2018-04-14T07:24:53.589Z,680
2018-04-14T07:35:07.573Z,665
2018-04-14T07:45:22.342Z,545
2018-04-14T07:55:37.326Z,595
2018-04-14T08:05:51.144Z,660
2018-04-14T08:16:05.463Z,760
2018-04-14T08:26:20.743Z,1010
2018-04-14T08:36:34.956Z,745
2018-04-14T08:46:48.906Z,655
2018-04-14T08:57:04.666Z,965
2018-04-14T09:07:18.474Z,545
2018-04-14T09:17:32.345Z,585
2018-04-14T09:27:47.102Z,795
2018-04-14T09:38:02.614Z,680
2018-04-14T09:48:16.515Z,605
2018-04-14T09:58:30.985Z,715
2018-04-14T10:08:46.513Z,545
2018-04-14T10:19:01.583Z,755
2018-04-14T10:29:17.136Z,690
2018-04-14T10:39:32.649Z,775
2018-04-14T10:49:47.588Z,955
2018-04-14T11:00:03.272Z,985
2018-04-14T11:10:18.031Z,1030
2018-04-14T11:20:32.924Z,925
2018-04-14T11:30:47.729Z,1070
2018-04-14T11:41:01.854Z,865
2018-04-14T11:51:16.950Z,2295
2018-04-14T12:01:30.832Z,1060
2018-04-14T12:11:45.665Z,945
2018-04-14T12:21:59.670Z,1050
2018-04-14T12:32:13.926Z,1905
2018-04-14T12:42:28.942Z,695
2018-04-14T12:52:43.915Z,820
2018-04-14T13:02:58.912Z,1175
2018-04-14T13:13:14.501Z,1475
2018-04-14T13:23:28.887Z,870
2018-04-14T13:33:44.263Z,1600
2018-04-14T13:44:00.033Z,1220
2018-04-14T13:54:13.768Z,1345
2018-04-14T14:04:28.422Z,1490
2018-04-14T14:14:42.776Z,830
2018-04-14T14:24:58.597Z,1180
2018-04-14T14:35:13.416Z,1225
2018-04-14T14:45:28.916Z,1230
2018-04-14T14:55:44.285Z,1230
2018-04-14T15:05:59.029Z,1070
2018-04-14T15:16:14.029Z,1055
2018-04-14T15:26:29.055Z,880
2018-04-14T15:36:43.941Z,765
2018-04-14T15:46:57.872Z,900
2018-04-14T15:57:12.579Z,760
2018-04-14T16:07:26.421Z,465
2018-04-14T16:17:41.642Z,405
2018-04-14T16:27:56.746Z,585
2018-04-14T16:38:11.727Z,510
2018-04-14T16:48:26.466Z,350
2018-04-14T16:58:40.335Z,235
2018-04-14T17:08:55.840Z,170
2018-04-14T17:19:11.152Z,145
2018-04-14T17:29:26.038Z,140
2018-04-14T17:39:40.867Z,105
2018-04-14T17:49:55.971Z,80
2018-04-14T18:00:10.154Z,50
2018-04-14T18:10:24.232Z,25
2018-04-14T18:20:38.907Z,10
2018-04-14T18:30:53.806Z,5
2018-04-14T18:41:08.645Z,0
2018-04-14T18:51:23.670Z,0
2018-04-14T19:01:38.805Z,0
2018-04-14T19:11:53.772Z,0
2018-04-14T19:22:07.724Z,0
2018-04-14T19:32:21.826Z,0
2018-04-14T19:42:37.179Z,0
2018-04-14T19:52:51.898Z,0
2018-04-14T20:03:07.203Z,0
2018-04-14T20:13:21.402Z,0
2018-04-14T20:23:36.826Z,0
2018-04-14T20:33:52.039Z,0
2018-04-14T20:44:07.437Z,0
2018-04-14T20:54:21.620Z,0
2018-04-14T21:04:37.201Z,0
2018-04-14T21:14:50.832Z,0
2018-04-14T21:25:05.468Z,0
2018-04-14T21:35:20.948Z,0
2018-04-14T21:45:34.791Z,0
2018-04-14T21:55:48.788Z,0
2018-04-14T22:06:03.363Z,0
2018-04-14T22:16:18.014Z,0
2018-04-14T22:26:32.246Z,0
2018-04-14T22:36:47.557Z,0
2018-04-14T22:47:01.578Z,0
2018-04-14T22:57:16.484Z,0
2018-04-14T23:07:31.542Z,0
2018-04-14T23:17:45.296Z,0
2018-04-14T23:28:00.826Z,0
2018-04-14T23:38:15.964Z,0
2018-04-14T23:48:31.261Z,0
2018-04-14T23:58:45.009Z,0
